sensor_id;sensor_type;location;lat;lon;timestamp;pressure;altitude;pressure_sealevel;temperature;humidity
50123;BME280;36021;48.670;6.184;2022-10-26T00:00:12;98830.41;;;15.89;100.00
50123;BME280;36021;48.670;6.184;2022-10-26T00:02:38;98828.59;;;15.93;100.00
50123;BME280;36021;48.670;6.184;2022-10-26T00:05:04;98808.94;;;15.98;100.00
50123;BME280;36021;48.670;6.184;2022-10-26T00:07:30;98806.44;;;16.05;100.00
50123;BME280;36021;48.670;6.184;2022-10-26T00:09:55;98824.84;;;16.18;100.00
50123;BME280;36021;48.670;6.184;2022-10-26T00:12:21;98816.78;;;16.25;100.00
50123;BME280;36021;48.670;6.184;2022-10-26T00:14:46;98810.09;;;16.26;100.00
50123;BME280;36021;48.670;6.184;2022-10-26T00:17:13;98822.53;;;16.20;100.00
50123;BME280;36021;48.670;6.184;2022-10-26T00:19:38;98820.94;;;15.90;100.00
50123;BME280;36021;48.670;6.184;2022-10-26T00:22:04;98836.84;;;15.72;100.00
50123;BME280;36021;48.670;6.184;2022-10-26T00:24:31;98833.44;;;15.67;100.00
50123;BME280;36021;48.670;6.184;2022-10-26T00:26:56;98841.75;;;15.75;100.00
50123;BME280;36021;48.670;6.184;2022-10-26T00:29:22;98842.41;;;15.72;100.00
50123;BME280;36021;48.670;6.184;2022-10-26T00:31:48;98838.41;;;15.52;100.00
50123;BME280;36021;48.670;6.184;2022-10-26T00:34:13;98841.34;;;15.47;100.00
50123;BME280;36021;48.670;6.184;2022-10-26T00:36:39;98844.25;;;15.59;100.00
50123;BME280;36021;48.670;6.184;2022-10-26T00:39:11;98839.69;;;15.63;100.00
50123;BME280;36021;48.670;6.184;2022-10-26T00:41:37;98832.59;;;15.75;100.00
50123;BME280;36021;48.670;6.184;2022-10-26T00:47:09;98834.41;;;15.71;100.00
50123;BME280;36021;48.670;6.184;2022-10-26T00:49:36;98837.00;;;15.76;100.00
50123;BME280;36021;48.670;6.184;2022-10-26T00:52:05;98859.53;;;15.83;100.00
50123;BME280;36021;48.670;6.184;2022-10-26T00:54:32;98877.75;;;15.63;100.00
50123;BME280;36021;48.670;6.184;2022-10-26T00:56:59;98879.09;;;15.57;100.00
50123;BME280;36021;48.670;6.184;2022-10-26T00:59:25;98880.72;;;15.49;100.00
50123;BME280;36021;48.670;6.184;2022-10-26T01:01:51;98868.75;;;15.57;100.00
50123;BME280;36021;48.670;6.184;2022-10-26T01:04:17;98857.66;;;15.57;100.00
50123;BME280;36021;48.670;6.184;2022-10-26T01:06:43;98847.19;;;15.54;100.00
50123;BME280;36021;48.670;6.184;2022-10-26T01:09:10;98853.44;;;15.51;100.00
50123;BME280;36021;48.670;6.184;2022-10-26T01:11:36;98854.41;;;15.55;100.00
50123;BME280;36021;48.670;6.184;2022-10-26T01:14:05;98856.19;;;15.60;100.00
50123;BME280;36021;48.670;6.184;2022-10-26T01:21:48;98861.28;;;15.49;100.00
50123;BME280;36021;48.670;6.184;2022-10-26T01:32:46;98855.16;;;15.73;100.00
50123;BME280;36021;48.670;6.184;2022-10-26T01:37:45;98863.00;;;15.71;100.00
50123;BME280;36021;48.670;6.184;2022-10-26T01:40:19;98866.09;;;15.78;100.00
50123;BME280;36021;48.670;6.184;2022-10-26T01:42:50;98878.25;;;15.56;100.00
50123;BME280;36021;48.670;6.184;2022-10-26T01:45:18;98881.69;;;15.45;100.00
50123;BME280;36021;48.670;6.184;2022-10-26T01:47:46;98868.78;;;15.40;100.00
50123;BME280;36021;48.670;6.184;2022-10-26T01:50:12;98872.91;;;15.34;100.00
50123;BME280;36021;48.670;6.184;2022-10-26T01:52:38;98873.69;;;15.43;100.00
50123;BME280;36021;48.670;6.184;2022-10-26T02:01:11;98851.16;;;15.91;100.00
50123;BME280;36021;48.670;6.184;2022-10-26T02:03:49;98846.03;;;16.02;100.00
50123;BME280;36021;48.670;6.184;2022-10-26T02:06:34;98852.38;;;16.11;100.00
50123;BME280;36021;48.670;6.184;2022-10-26T02:11:50;98840.69;;;16.26;100.00
50123;BME280;36021;48.670;6.184;2022-10-26T02:17:05;98835.72;;;16.32;100.00
50123;BME280;36021;48.670;6.184;2022-10-26T02:19:39;98835.72;;;16.32;100.00
50123;BME280;36021;48.670;6.184;2022-10-26T02:22:26;98822.44;;;16.37;100.00
50123;BME280;36021;48.670;6.184;2022-10-26T02:24:56;98809.47;;;16.41;100.00
50123;BME280;36021;48.670;6.184;2022-10-26T02:27:27;98806.19;;;16.39;100.00
50123;BME280;36021;48.670;6.184;2022-10-26T02:29:57;98809.94;;;16.43;100.00
50123;BME280;36021;48.670;6.184;2022-10-26T02:32:26;98803.41;;;16.39;100.00
50123;BME280;36021;48.670;6.184;2022-10-26T02:34:54;98798.50;;;16.45;100.00
50123;BME280;36021;48.670;6.184;2022-10-26T02:37:23;98798.78;;;16.52;100.00
50123;BME280;36021;48.670;6.184;2022-10-26T02:39:50;98795.63;;;16.53;100.00
50123;BME280;36021;48.670;6.184;2022-10-26T02:42:18;98792.69;;;16.58;100.00
50123;BME280;36021;48.670;6.184;2022-10-26T02:44:50;98789.91;;;16.58;100.00
50123;BME280;36021;48.670;6.184;2022-10-26T02:47:18;98788.72;;;16.59;100.00
50123;BME280;36021;48.670;6.184;2022-10-26T02:49:45;98786.44;;;16.61;100.00
50123;BME280;36021;48.670;6.184;2022-10-26T02:52:17;98782.63;;;16.66;100.00
50123;BME280;36021;48.670;6.184;2022-10-26T02:54:56;98780.47;;;16.72;100.00
50123;BME280;36021;48.670;6.184;2022-10-26T03:00:00;98787.50;;;16.48;100.00
50123;BME280;36021;48.670;6.184;2022-10-26T03:02:26;98783.03;;;16.35;100.00
50123;BME280;36021;48.670;6.184;2022-10-26T03:04:53;98787.16;;;16.29;100.00
50123;BME280;36021;48.670;6.184;2022-10-26T03:07:21;98786.94;;;16.34;100.00
50123;BME280;36021;48.670;6.184;2022-10-26T03:09:47;98794.25;;;16.18;100.00
50123;BME280;36021;48.670;6.184;2022-10-26T03:12:13;98799.22;;;16.33;100.00
50123;BME280;36021;48.670;6.184;2022-10-26T03:14:38;98801.81;;;16.38;100.00
50123;BME280;36021;48.670;6.184;2022-10-26T03:17:06;98802.97;;;16.37;100.00
50123;BME280;36021;48.670;6.184;2022-10-26T03:19:32;98809.47;;;16.41;100.00
50123;BME280;36021;48.670;6.184;2022-10-26T03:21:59;98812.69;;;16.52;100.00
50123;BME280;36021;48.670;6.184;2022-10-26T03:24:25;98809.75;;;16.48;100.00
50123;BME280;36021;48.670;6.184;2022-10-26T03:26:50;98819.53;;;16.54;100.00
50123;BME280;36021;48.670;6.184;2022-10-26T03:29:16;98801.28;;;16.45;100.00
50123;BME280;36021;48.670;6.184;2022-10-26T03:31:42;98802.97;;;16.37;100.00
50123;BME280;36021;48.670;6.184;2022-10-26T03:34:07;98803.31;;;16.36;100.00
50123;BME280;36021;48.670;6.184;2022-10-26T03:36:33;98804.78;;;16.33;100.00
50123;BME280;36021;48.670;6.184;2022-10-26T03:39:00;98811.56;;;16.24;100.00
50123;BME280;36021;48.670;6.184;2022-10-26T03:41:25;98824.56;;;16.11;100.00
50123;BME280;36021;48.670;6.184;2022-10-26T03:43:51;98828.69;;;16.05;100.00
50123;BME280;36021;48.670;6.184;2022-10-26T03:46:17;98843.19;;;16.10;100.00
50123;BME280;36021;48.670;6.184;2022-10-26T03:48:42;98861.84;;;16.10;100.00
50123;BME280;36021;48.670;6.184;2022-10-26T03:51:08;98867.22;;;16.15;100.00
50123;BME280;36021;48.670;6.184;2022-10-26T03:53:35;98876.41;;;16.15;100.00
50123;BME280;36021;48.670;6.184;2022-10-26T03:56:05;98879.31;;;16.19;100.00
50123;BME280;36021;48.670;6.184;2022-10-26T03:58:32;98886.34;;;16.16;100.00
50123;BME280;36021;48.670;6.184;2022-10-26T04:00:58;98897.63;;;16.20;100.00
50123;BME280;36021;48.670;6.184;2022-10-26T04:03:23;98886.63;;;15.94;100.00
50123;BME280;36021;48.670;6.184;2022-10-26T04:05:49;98886.00;;;15.89;100.00
50123;BME280;36021;48.670;6.184;2022-10-26T04:08:14;98883.69;;;15.91;100.00
50123;BME280;36021;48.670;6.184;2022-10-26T04:10:40;98884.00;;;15.98;100.00
50123;BME280;36021;48.670;6.184;2022-10-26T04:13:06;98885.63;;;15.99;100.00
50123;BME280;36021;48.670;6.184;2022-10-26T04:15:31;98879.41;;;16.02;100.00
50123;BME280;36021;48.670;6.184;2022-10-26T04:17:59;98878.09;;;15.99;100.00
50123;BME280;36021;48.670;6.184;2022-10-26T04:20:27;98886.31;;;15.96;100.00
50123;BME280;36021;48.670;6.184;2022-10-26T04:22:58;98893.47;;;15.97;100.00
50123;BME280;36021;48.670;6.184;2022-10-26T04:25:23;98884.34;;;15.88;100.00
50123;BME280;36021;48.670;6.184;2022-10-26T04:27:49;98884.50;;;15.91;100.00
50123;BME280;36021;48.670;6.184;2022-10-26T04:30:15;98897.78;;;15.86;100.00
50123;BME280;36021;48.670;6.184;2022-10-26T04:32:40;98891.25;;;15.82;100.00
50123;BME280;36021;48.670;6.184;2022-10-26T04:35:06;98900.06;;;15.84;100.00
50123;BME280;36021;48.670;6.184;2022-10-26T04:37:33;98907.59;;;15.83;100.00
50123;BME280;36021;48.670;6.184;2022-10-26T04:40:00;98900.72;;;15.81;100.00
50123;BME280;36021;48.670;6.184;2022-10-26T04:42:25;98906.78;;;15.74;100.00
50123;BME280;36021;48.670;6.184;2022-10-26T04:44:51;98917.75;;;15.71;100.00
50123;BME280;36021;48.670;6.184;2022-10-26T04:47:16;98922.00;;;15.77;100.00
50123;BME280;36021;48.670;6.184;2022-10-26T04:49:42;98932.97;;;15.73;100.00
50123;BME280;36021;48.670;6.184;2022-10-26T04:52:09;98933.78;;;15.74;100.00
50123;BME280;36021;48.670;6.184;2022-10-26T04:54:35;98935.41;;;15.75;100.00
50123;BME280;36021;48.670;6.184;2022-10-26T04:57:01;98941.63;;;15.72;100.00
50123;BME280;36021;48.670;6.184;2022-10-26T04:59:27;98943.94;;;15.70;100.00
50123;BME280;36021;48.670;6.184;2022-10-26T05:01:53;98937.56;;;15.69;100.00
50123;BME280;36021;48.670;6.184;2022-10-26T05:04:18;98939.03;;;15.67;100.00
50123;BME280;36021;48.670;6.184;2022-10-26T05:06:44;98942.94;;;15.66;100.00
50123;BME280;36021;48.670;6.184;2022-10-26T05:09:09;98941.00;;;15.66;100.00
50123;BME280;36021;48.670;6.184;2022-10-26T05:11:35;98943.44;;;15.68;100.00
50123;BME280;36021;48.670;6.184;2022-10-26T05:14:01;98939.66;;;15.72;100.00
50123;BME280;36021;48.670;6.184;2022-10-26T05:16:27;98946.34;;;15.80;100.00
50123;BME280;36021;48.670;6.184;2022-10-26T05:18:52;98947.34;;;15.75;100.00
50123;BME280;36021;48.670;6.184;2022-10-26T05:21:20;98953.25;;;15.74;100.00
50123;BME280;36021;48.670;6.184;2022-10-26T05:23:50;98951.59;;;15.73;100.00
50123;BME280;36021;48.670;6.184;2022-10-26T05:26:23;98954.38;;;15.73;100.00
50123;BME280;36021;48.670;6.184;2022-10-26T05:28:50;98956.66;;;15.71;100.00
50123;BME280;36021;48.670;6.184;2022-10-26T05:31:16;98955.69;;;15.75;100.00
50123;BME280;36021;48.670;6.184;2022-10-26T05:33:42;98963.19;;;15.75;100.00
50123;BME280;36021;48.670;6.184;2022-10-26T05:36:09;98978.38;;;15.77;100.00
50123;BME280;36021;48.670;6.184;2022-10-26T05:38:34;98959.09;;;15.81;100.00
50123;BME280;36021;48.670;6.184;2022-10-26T05:41:00;98971.53;;;15.83;100.00
50123;BME280;36021;48.670;6.184;2022-10-26T05:43:26;98980.03;;;15.87;100.00
50123;BME280;36021;48.670;6.184;2022-10-26T05:45:53;98954.81;;;15.92;100.00
50123;BME280;36021;48.670;6.184;2022-10-26T05:48:19;98962.19;;;15.88;100.00
50123;BME280;36021;48.670;6.184;2022-10-26T05:50:45;98954.34;;;15.90;100.00
50123;BME280;36021;48.670;6.184;2022-10-26T05:53:11;98956.94;;;15.95;100.00
50123;BME280;36021;48.670;6.184;2022-10-26T05:55:38;98965.47;;;15.90;100.00
50123;BME280;36021;48.670;6.184;2022-10-26T05:58:11;98974.28;;;15.92;100.00
50123;BME280;36021;48.670;6.184;2022-10-26T06:05:57;98992.09;;;15.91;100.00
50123;BME280;36021;48.670;6.184;2022-10-26T06:08:25;98990.13;;;15.91;100.00
50123;BME280;36021;48.670;6.184;2022-10-26T06:10:52;98987.69;;;15.90;100.00
50123;BME280;36021;48.670;6.184;2022-10-26T06:13:19;98985.72;;;15.90;100.00
50123;BME280;36021;48.670;6.184;2022-10-26T06:30:13;99008.78;;;15.99;100.00
50123;BME280;36021;48.670;6.184;2022-10-26T06:32:48;99018.72;;;16.00;100.00
50123;BME280;36021;48.670;6.184;2022-10-26T06:37:58;99034.22;;;16.10;100.00
50123;BME280;36021;48.670;6.184;2022-10-26T06:40:25;99046.53;;;16.09;100.00
50123;BME280;36021;48.670;6.184;2022-10-26T06:42:51;99044.22;;;16.11;100.00
50123;BME280;36021;48.670;6.184;2022-10-26T06:45:17;99046.34;;;16.14;100.00
50123;BME280;36021;48.670;6.184;2022-10-26T06:47:56;99051.59;;;16.15;100.00
50123;BME280;36021;48.670;6.184;2022-10-26T06:53:08;99074.47;;;16.21;100.00
50123;BME280;36021;48.670;6.184;2022-10-26T06:55:42;99077.25;;;16.21;100.00
50123;BME280;36021;48.670;6.184;2022-10-26T06:58:17;99083.28;;;16.23;100.00
50123;BME280;36021;48.670;6.184;2022-10-26T07:00:46;99085.28;;;16.23;100.00
50123;BME280;36021;48.670;6.184;2022-10-26T07:03:12;99093.28;;;16.24;100.00
50123;BME280;36021;48.670;6.184;2022-10-26T07:05:38;99084.25;;;16.27;100.00
50123;BME280;36021;48.670;6.184;2022-10-26T07:08:04;99095.06;;;16.29;100.00
50123;BME280;36021;48.670;6.184;2022-10-26T07:10:30;99094.56;;;16.35;100.00
50123;BME280;36021;48.670;6.184;2022-10-26T07:12:56;99098.63;;;16.38;100.00
50123;BME280;36021;48.670;6.184;2022-10-26T07:15:22;99105.84;;;16.39;100.00
50123;BME280;36021;48.670;6.184;2022-10-26T07:17:48;99099.28;;;16.43;100.00
50123;BME280;36021;48.670;6.184;2022-10-26T07:20:16;99102.38;;;16.50;100.00
50123;BME280;36021;48.670;6.184;2022-10-26T07:22:43;99101.41;;;16.55;100.00
50123;BME280;36021;48.670;6.184;2022-10-26T07:25:10;99098.13;;;16.61;100.00
50123;BME280;36021;48.670;6.184;2022-10-26T07:27:36;99106.94;;;16.63;100.00
50123;BME280;36021;48.670;6.184;2022-10-26T07:30:02;99113.47;;;16.67;100.00
50123;BME280;36021;48.670;6.184;2022-10-26T07:32:28;99108.06;;;16.71;100.00
50123;BME280;36021;48.670;6.184;2022-10-26T07:34:55;99107.41;;;16.74;100.00
50123;BME280;36021;48.670;6.184;2022-10-26T07:37:23;99122.59;;;16.77;100.00
50123;BME280;36021;48.670;6.184;2022-10-26T07:39:48;99120.44;;;16.82;100.00
50123;BME280;36021;48.670;6.184;2022-10-26T07:42:14;99141.72;;;16.87;100.00
50123;BME280;36021;48.670;6.184;2022-10-26T07:44:40;99137.59;;;16.93;100.00
50123;BME280;36021;48.670;6.184;2022-10-26T07:47:06;99134.00;;;16.92;100.00
50123;BME280;36021;48.670;6.184;2022-10-26T07:49:31;99126.63;;;16.96;100.00
50123;BME280;36021;48.670;6.184;2022-10-26T07:51:57;99128.41;;;17.01;100.00
50123;BME280;36021;48.670;6.184;2022-10-26T07:54:22;99125.28;;;17.02;100.00
50123;BME280;36021;48.670;6.184;2022-10-26T07:56:49;99136.09;;;17.04;100.00
50123;BME280;36021;48.670;6.184;2022-10-26T07:59:16;99132.81;;;17.02;100.00
50123;BME280;36021;48.670;6.184;2022-10-26T08:01:43;99140.50;;;17.05;100.00
50123;BME280;36021;48.670;6.184;2022-10-26T08:04:09;99146.06;;;17.05;100.00
50123;BME280;36021;48.670;6.184;2022-10-26T08:06:35;99148.06;;;17.04;100.00
50123;BME280;36021;48.670;6.184;2022-10-26T08:09:01;99157.22;;;17.05;100.00
50123;BME280;36021;48.670;6.184;2022-10-26T08:11:26;99147.38;;;17.07;100.00
50123;BME280;36021;48.670;6.184;2022-10-26T08:13:53;99154.25;;;17.10;100.00
50123;BME280;36021;48.670;6.184;2022-10-26T08:16:19;99152.75;;;17.12;100.00
50123;BME280;36021;48.670;6.184;2022-10-26T08:18:51;99160.13;;;17.17;100.00
50123;BME280;36021;48.670;6.184;2022-10-26T08:21:17;99164.88;;;17.16;100.00
50123;BME280;36021;48.670;6.184;2022-10-26T08:23:44;99173.03;;;17.22;100.00
50123;BME280;36021;48.670;6.184;2022-10-26T08:26:10;99171.03;;;17.31;100.00
50123;BME280;36021;48.670;6.184;2022-10-26T08:28:36;99183.19;;;17.26;100.00
50123;BME280;36021;48.670;6.184;2022-10-26T08:31:02;99179.88;;;17.33;100.00
50123;BME280;36021;48.670;6.184;2022-10-26T08:33:28;99184.97;;;17.31;100.00
50123;BME280;36021;48.670;6.184;2022-10-26T08:35:58;99186.41;;;17.37;100.00
50123;BME280;36021;48.670;6.184;2022-10-26T08:38:27;99181.78;;;17.41;100.00
50123;BME280;36021;48.670;6.184;2022-10-26T08:40:53;99191.63;;;17.38;100.00
50123;BME280;36021;48.670;6.184;2022-10-26T08:43:55;99190.28;;;17.44;100.00
50123;BME280;36021;48.670;6.184;2022-10-26T08:46:25;99203.69;;;17.51;100.00
50123;BME280;36021;48.670;6.184;2022-10-26T08:49:23;99212.72;;;17.48;100.00
50123;BME280;36021;48.670;6.184;2022-10-26T08:51:50;99212.72;;;17.56;100.00
50123;BME280;36021;48.670;6.184;2022-10-26T08:54:29;99209.34;;;17.72;100.00
50123;BME280;36021;48.670;6.184;2022-10-26T08:56:59;99210.59;;;17.83;100.00
50123;BME280;36021;48.670;6.184;2022-10-26T09:01:53;99218.25;;;18.15;100.00
50123;BME280;36021;48.670;6.184;2022-10-26T09:04:23;99216.19;;;18.24;100.00
50123;BME280;36021;48.670;6.184;2022-10-26T09:12:46;99220.66;;;18.79;100.00
50123;BME280;36021;48.670;6.184;2022-10-26T09:25:52;99223.59;;;19.27;100.00
50123;BME280;36021;48.670;6.184;2022-10-26T09:28:21;99235.53;;;19.15;100.00
50123;BME280;36021;48.670;6.184;2022-10-26T09:30:47;99231.91;;;19.15;100.00
50123;BME280;36021;48.670;6.184;2022-10-26T09:33:16;99239.16;;;19.16;100.00
50123;BME280;36021;48.670;6.184;2022-10-26T09:35:52;99237.31;;;19.20;100.00
50123;BME280;36021;48.670;6.184;2022-10-26T09:38:32;99239.59;;;19.18;100.00
50123;BME280;36021;48.670;6.184;2022-10-26T09:41:36;99241.34;;;19.43;100.00
50123;BME280;36021;48.670;6.184;2022-10-26T09:46:54;99251.13;;;19.49;100.00
50123;BME280;36021;48.670;6.184;2022-10-26T09:49:27;99240.06;;;19.53;100.00
50123;BME280;36021;48.670;6.184;2022-10-26T09:51:57;99251.34;;;19.81;100.00
50123;BME280;36021;48.670;6.184;2022-10-26T09:54:23;99258.09;;;19.92;100.00
50123;BME280;36021;48.670;6.184;2022-10-26T09:56:52;99251.91;;;20.10;100.00
50123;BME280;36021;48.670;6.184;2022-10-26T09:59:22;99255.03;;;20.21;100.00
50123;BME280;36021;48.670;6.184;2022-10-26T10:01:48;99256.84;;;20.53;100.00
50123;BME280;36021;48.670;6.184;2022-10-26T10:09:33;99252.00;;;21.21;100.00
50123;BME280;36021;48.670;6.184;2022-10-26T10:12:00;99265.63;;;21.98;100.00
50123;BME280;36021;48.670;6.184;2022-10-26T10:17:01;99263.31;;;24.02;100.00
50123;BME280;36021;48.670;6.184;2022-10-26T10:19:29;99264.56;;;24.83;100.00
50123;BME280;36021;48.670;6.184;2022-10-26T10:21:58;99262.72;;;25.75;100.00
50123;BME280;36021;48.670;6.184;2022-10-26T10:24:32;99270.94;;;26.46;100.00
50123;BME280;36021;48.670;6.184;2022-10-26T10:29:47;99266.19;;;27.85;100.00
50123;BME280;36021;48.670;6.184;2022-10-26T10:32:19;99274.13;;;28.89;100.00
50123;BME280;36021;48.670;6.184;2022-10-26T10:34:49;99277.03;;;27.37;100.00
50123;BME280;36021;48.670;6.184;2022-10-26T10:37:35;99277.91;;;28.48;100.00
50123;BME280;36021;48.670;6.184;2022-10-26T10:40:08;99276.31;;;29.51;100.00
50123;BME280;36021;48.670;6.184;2022-10-26T10:42:40;99268.56;;;30.10;100.00
50123;BME280;36021;48.670;6.184;2022-10-26T10:45:21;99273.41;;;30.91;100.00
50123;BME280;36021;48.670;6.184;2022-10-26T10:50:27;99280.03;;;32.26;100.00
50123;BME280;36021;48.670;6.184;2022-10-26T10:53:12;99284.56;;;32.89;100.00
50123;BME280;36021;48.670;6.184;2022-10-26T10:55:42;99292.19;;;33.16;100.00
50123;BME280;36021;48.670;6.184;2022-10-26T11:00:42;99288.94;;;33.53;100.00
50123;BME280;36021;48.670;6.184;2022-10-26T11:03:29;99285.97;;;33.92;100.00
50123;BME280;36021;48.670;6.184;2022-10-26T11:06:22;99288.50;;;34.39;100.00
50123;BME280;36021;48.670;6.184;2022-10-26T11:09:00;99289.34;;;35.80;100.00
50123;BME280;36021;48.670;6.184;2022-10-26T11:11:34;99288.19;;;36.02;100.00
50123;BME280;36021;48.670;6.184;2022-10-26T11:14:31;99295.94;;;36.40;100.00
50123;BME280;36021;48.670;6.184;2022-10-26T11:17:19;99292.56;;;35.28;100.00
50123;BME280;36021;48.670;6.184;2022-10-26T11:19:52;99288.88;;;36.19;100.00
50123;BME280;36021;48.670;6.184;2022-10-26T11:22:28;99288.28;;;35.61;100.00
50123;BME280;36021;48.670;6.184;2022-10-26T11:25:02;99277.78;;;37.12;100.00
50123;BME280;36021;48.670;6.184;2022-10-26T11:27:42;99288.38;;;37.45;100.00
50123;BME280;36021;48.670;6.184;2022-10-26T11:30:22;99284.91;;;36.85;100.00
50123;BME280;36021;48.670;6.184;2022-10-26T11:33:39;99295.50;;;36.41;100.00
50123;BME280;36021;48.670;6.184;2022-10-26T11:35:47;99300.31;;;34.86;100.00
50123;BME280;36021;48.670;6.184;2022-10-26T11:38:45;99292.66;;;36.29;100.00
50123;BME280;36021;48.670;6.184;2022-10-26T11:41:28;99292.25;;;35.38;100.00
50123;BME280;36021;48.670;6.184;2022-10-26T11:44:02;99294.53;;;33.76;100.00
50123;BME280;36021;48.670;6.184;2022-10-26T11:46:40;99302.81;;;33.35;100.00
50123;BME280;36021;48.670;6.184;2022-10-26T11:49:17;99306.25;;;33.46;100.00
50123;BME280;36021;48.670;6.184;2022-10-26T11:51:58;99304.56;;;31.96;100.00
50123;BME280;36021;48.670;6.184;2022-10-26T11:54:44;99306.16;;;32.90;100.00
50123;BME280;36021;48.670;6.184;2022-10-26T11:57:14;99307.50;;;32.63;100.00
50123;BME280;36021;48.670;6.184;2022-10-26T11:59:54;99303.22;;;32.05;100.00
50123;BME280;36021;48.670;6.184;2022-10-26T12:02:23;99310.91;;;31.81;100.00
50123;BME280;36021;48.670;6.184;2022-10-26T12:05:02;99302.69;;;31.26;100.00
50123;BME280;36021;48.670;6.184;2022-10-26T12:07:31;99297.94;;;31.46;100.00
50123;BME280;36021;48.670;6.184;2022-10-26T12:09:59;99311.22;;;30.10;100.00
50123;BME280;36021;48.670;6.184;2022-10-26T12:12:37;99302.66;;;29.52;100.00
50123;BME280;36021;48.670;6.184;2022-10-26T12:17:57;99306.63;;;28.60;100.00
50123;BME280;36021;48.670;6.184;2022-10-26T12:23:11;99304.69;;;31.29;100.00
50123;BME280;36021;48.670;6.184;2022-10-26T12:25:37;99307.75;;;31.15;100.00
50123;BME280;36021;48.670;6.184;2022-10-26T12:28:03;99291.59;;;31.65;100.00
50123;BME280;36021;48.670;6.184;2022-10-26T12:30:31;99298.09;;;31.66;100.00
50123;BME280;36021;48.670;6.184;2022-10-26T12:33:01;99304.16;;;31.94;100.00
50123;BME280;36021;48.670;6.184;2022-10-26T12:38:03;99305.94;;;31.58;100.00
50123;BME280;36021;48.670;6.184;2022-10-26T12:40:48;99307.84;;;31.68;100.00
50123;BME280;36021;48.670;6.184;2022-10-26T12:48:48;99318.00;;;32.46;100.00
50123;BME280;36021;48.670;6.184;2022-10-26T12:56:48;99325.75;;;31.95;100.00
50123;BME280;36021;48.670;6.184;2022-10-26T13:02:02;99320.31;;;31.78;100.00
50123;BME280;36021;48.670;6.184;2022-10-26T13:07:33;99328.25;;;31.33;100.00
50123;BME280;36021;48.670;6.184;2022-10-26T13:10:00;99315.88;;;31.46;100.00
50123;BME280;36021;48.670;6.184;2022-10-26T13:12:34;99317.69;;;31.64;100.00
50123;BME280;36021;48.670;6.184;2022-10-26T13:15:03;99327.63;;;31.52;100.00
50123;BME280;36021;48.670;6.184;2022-10-26T13:17:31;99325.91;;;30.90;100.00
50123;BME280;36021;48.670;6.184;2022-10-26T13:19:59;99328.91;;;30.76;100.00
50123;BME280;36021;48.670;6.184;2022-10-26T13:22:26;99332.75;;;30.59;100.00
50123;BME280;36021;48.670;6.184;2022-10-26T13:24:56;99331.97;;;29.38;100.00
50123;BME280;36021;48.670;6.184;2022-10-26T13:30:16;99332.53;;;28.98;100.00
50123;BME280;36021;48.670;6.184;2022-10-26T13:32:51;99339.34;;;29.14;100.00
50123;BME280;36021;48.670;6.184;2022-10-26T13:35:20;99332.06;;;29.13;100.00
50123;BME280;36021;48.670;6.184;2022-10-26T13:37:49;99334.88;;;29.17;100.00
50123;BME280;36021;48.670;6.184;2022-10-26T13:40:26;99328.81;;;29.15;100.00
50123;BME280;36021;48.670;6.184;2022-10-26T13:42:55;99337.88;;;28.21;100.00
50123;BME280;36021;48.670;6.184;2022-10-26T13:45:25;99334.66;;;28.16;100.00
50123;BME280;36021;48.670;6.184;2022-10-26T13:48:11;99329.75;;;28.62;100.00
50123;BME280;36021;48.670;6.184;2022-10-26T13:50:51;99325.31;;;28.72;100.00
50123;BME280;36021;48.670;6.184;2022-10-26T13:53:30;99343.50;;;28.64;100.00
50123;BME280;36021;48.670;6.184;2022-10-26T13:58:56;99339.47;;;28.58;100.00
50123;BME280;36021;48.670;6.184;2022-10-26T14:01:25;99341.91;;;28.77;100.00
50123;BME280;36021;48.670;6.184;2022-10-26T14:03:50;99338.69;;;28.68;100.00
50123;BME280;36021;48.670;6.184;2022-10-26T14:06:30;99342.75;;;28.53;100.00
50123;BME280;36021;48.670;6.184;2022-10-26T14:09:02;99344.34;;;28.50;100.00
50123;BME280;36021;48.670;6.184;2022-10-26T14:11:43;99333.44;;;28.24;100.00
50123;BME280;36021;48.670;6.184;2022-10-26T14:14:14;99335.88;;;28.36;100.00
50123;BME280;36021;48.670;6.184;2022-10-26T14:16:41;99345.59;;;28.14;100.00
50123;BME280;36021;48.670;6.184;2022-10-26T14:19:38;99345.44;;;27.50;100.00
50123;BME280;36021;48.670;6.184;2022-10-26T14:22:06;99354.84;;;27.89;100.00
50123;BME280;36021;48.670;6.184;2022-10-26T14:24:34;99357.28;;;27.87;100.00
50123;BME280;36021;48.670;6.184;2022-10-26T14:27:16;99356.50;;;28.08;100.00
50123;BME280;36021;48.670;6.184;2022-10-26T14:29:43;99359.75;;;28.07;100.00
50123;BME280;36021;48.670;6.184;2022-10-26T14:32:20;99366.59;;;27.99;100.00
50123;BME280;36021;48.670;6.184;2022-10-26T14:34:45;99366.91;;;27.55;100.00
50123;BME280;36021;48.670;6.184;2022-10-26T14:37:24;99367.59;;;27.27;100.00
50123;BME280;36021;48.670;6.184;2022-10-26T14:39:52;99365.38;;;26.88;100.00
50123;BME280;36021;48.670;6.184;2022-10-26T14:42:39;99380.91;;;27.23;100.00
50123;BME280;36021;48.670;6.184;2022-10-26T14:45:21;99378.91;;;27.27;100.00
50123;BME280;36021;48.670;6.184;2022-10-26T14:47:48;99387.03;;;26.70;100.00
50123;BME280;36021;48.670;6.184;2022-10-26T14:50:21;99386.34;;;26.29;100.00
50123;BME280;36021;48.670;6.184;2022-10-26T14:52:53;99394.22;;;25.73;100.00
50123;BME280;36021;48.670;6.184;2022-10-26T14:55:20;99392.06;;;25.29;100.00
50123;BME280;36021;48.670;6.184;2022-10-26T14:57:47;99393.66;;;25.27;100.00
50123;BME280;36021;48.670;6.184;2022-10-26T15:00:21;99395.28;;;24.98;100.00
50123;BME280;36021;48.670;6.184;2022-10-26T15:02:49;99399.03;;;24.79;100.00
50123;BME280;36021;48.670;6.184;2022-10-26T15:07:41;99402.03;;;24.67;100.00
50123;BME280;36021;48.670;6.184;2022-10-26T15:13:19;99402.97;;;24.26;100.00
50123;BME280;36021;48.670;6.184;2022-10-26T15:15:47;99401.09;;;24.11;100.00